sensor_id;sensor_type;location;lat;lon;timestamp;pressure;altitude;pressure_sealevel;temperature;humidity
40708;BME280;26392;42.696;23.350;2023-01-26T00:00:24;95806.78;;;0.71;100.00
40708;BME280;26392;42.696;23.350;2023-01-26T00:02:49;95808.34;;;0.65;100.00
40708;BME280;26392;42.696;23.350;2023-01-26T00:05:15;95816.38;;;0.65;100.00
40708;BME280;26392;42.696;23.350;2023-01-26T00:07:40;95825.72;;;0.70;100.00
40708;BME280;26392;42.696;23.350;2023-01-26T00:10:10;95813.41;;;0.60;100.00
40708;BME280;26392;42.696;23.350;2023-01-26T00:12:36;95814.84;;;0.48;100.00
40708;BME280;26392;42.696;23.350;2023-01-26T00:15:02;95810.03;;;0.43;100.00
40708;BME280;26392;42.696;23.350;2023-01-26T00:17:27;95822.59;;;0.43;100.00
40708;BME280;26392;42.696;23.350;2023-01-26T00:19:57;95823.53;;;0.50;100.00
40708;BME280;26392;42.696;23.350;2023-01-26T00:22:24;95829.84;;;0.57;100.00
40708;BME280;26392;42.696;23.350;2023-01-26T00:24:49;95816.91;;;0.61;100.00
40708;BME280;26392;42.696;23.350;2023-01-26T00:27:15;95829.56;;;0.52;100.00
40708;BME280;26392;42.696;23.350;2023-01-26T00:29:40;95823.34;;;0.52;100.00
40708;BME280;26392;42.696;23.350;2023-01-26T00:32:06;95808.56;;;0.56;100.00
40708;BME280;26392;42.696;23.350;2023-01-26T00:34:31;95807.56;;;0.57;100.00
40708;BME280;26392;42.696;23.350;2023-01-26T00:36:56;95799.31;;;0.58;100.00
40708;BME280;26392;42.696;23.350;2023-01-26T00:39:22;95785.28;;;0.56;100.00
40708;BME280;26392;42.696;23.350;2023-01-26T00:41:47;95798.63;;;0.64;100.00
40708;BME280;26392;42.696;23.350;2023-01-26T00:44:31;95792.69;;;0.69;100.00
40708;BME280;26392;42.696;23.350;2023-01-26T00:46:56;95785.22;;;0.64;100.00
40708;BME280;26392;42.696;23.350;2023-01-26T00:49:21;95784.84;;;0.68;100.00
40708;BME280;26392;42.696;23.350;2023-01-26T00:51:47;95787.53;;;0.68;100.00
40708;BME280;26392;42.696;23.350;2023-01-26T00:54:12;95780.69;;;0.65;100.00
40708;BME280;26392;42.696;23.350;2023-01-26T00:56:38;95786.50;;;0.69;100.00
40708;BME280;26392;42.696;23.350;2023-01-26T00:59:03;95780.19;;;0.61;100.00
40708;BME280;26392;42.696;23.350;2023-01-26T01:01:30;95767.34;;;0.57;100.00
40708;BME280;26392;42.696;23.350;2023-01-26T01:03:56;95772.22;;;0.53;100.00
40708;BME280;26392;42.696;23.350;2023-01-26T01:06:21;95762.16;;;0.55;100.00
40708;BME280;26392;42.696;23.350;2023-01-26T01:08:47;95751.78;;;0.52;100.00
40708;BME280;26392;42.696;23.350;2023-01-26T01:11:12;95761.50;;;0.53;100.00
40708;BME280;26392;42.696;23.350;2023-01-26T01:13:38;95766.66;;;0.40;100.00
40708;BME280;26392;42.696;23.350;2023-01-26T01:16:08;95761.41;;;0.47;100.00
40708;BME280;26392;42.696;23.350;2023-01-26T01:18:34;95766.59;;;0.48;100.00
40708;BME280;26392;42.696;23.350;2023-01-26T01:21:03;95754.09;;;0.55;100.00
40708;BME280;26392;42.696;23.350;2023-01-26T01:23:29;95758.09;;;0.59;100.00
40708;BME280;26392;42.696;23.350;2023-01-26T01:25:59;95761.25;;;0.63;100.00
40708;BME280;26392;42.696;23.350;2023-01-26T01:28:24;95759.75;;;0.60;100.00
40708;BME280;26392;42.696;23.350;2023-01-26T01:30:50;95759.03;;;0.66;100.00
40708;BME280;26392;42.696;23.350;2023-01-26T01:33:15;95758.41;;;0.64;100.00
40708;BME280;26392;42.696;23.350;2023-01-26T01:35:41;95756.53;;;0.65;100.00
40708;BME280;26392;42.696;23.350;2023-01-26T01:38:06;95748.59;;;0.72;100.00
40708;BME280;26392;42.696;23.350;2023-01-26T01:40:34;95758.28;;;0.73;100.00
40708;BME280;26392;42.696;23.350;2023-01-26T01:43:00;95750.91;;;0.60;100.00
40708;BME280;26392;42.696;23.350;2023-01-26T01:47:52;95743.38;;;0.55;100.00
40708;BME280;26392;42.696;23.350;2023-01-26T01:50:19;95748.09;;;0.53;100.00
40708;BME280;26392;42.696;23.350;2023-01-26T01:52:45;95745.78;;;0.50;100.00
40708;BME280;26392;42.696;23.350;2023-01-26T01:55:14;95751.88;;;0.44;100.00
40708;BME280;26392;42.696;23.350;2023-01-26T01:57:47;95750.88;;;0.45;100.00
40708;BME280;26392;42.696;23.350;2023-01-26T02:00:18;95741.59;;;0.48;100.00
40708;BME280;26392;42.696;23.350;2023-01-26T02:02:52;95745.84;;;0.42;100.00
40708;BME280;26392;42.696;23.350;2023-01-26T02:05:49;95739.25;;;0.30;100.00
40708;BME280;26392;42.696;23.350;2023-01-26T02:08:17;95737.03;;;0.33;100.00
40708;BME280;26392;42.696;23.350;2023-01-26T02:10:48;95733.06;;;0.29;100.00
40708;BME280;26392;42.696;23.350;2023-01-26T02:13:17;95727.34;;;0.32;100.00
40708;BME280;26392;42.696;23.350;2023-01-26T02:15:43;95710.44;;;0.32;100.00
40708;BME280;26392;42.696;23.350;2023-01-26T02:18:09;95728.63;;;0.36;100.00
40708;BME280;26392;42.696;23.350;2023-01-26T02:20:55;95708.81;;;0.46;100.00
40708;BME280;26392;42.696;23.350;2023-01-26T02:26:09;95701.84;;;0.36;100.00
40708;BME280;26392;42.696;23.350;2023-01-26T02:28:37;95692.97;;;0.36;100.00
40708;BME280;26392;42.696;23.350;2023-01-26T02:31:04;95699.53;;;0.33;100.00
40708;BME280;26392;42.696;23.350;2023-01-26T02:33:31;95687.16;;;0.32;100.00
40708;BME280;26392;42.696;23.350;2023-01-26T02:35:57;95686.59;;;0.37;100.00
40708;BME280;26392;42.696;23.350;2023-01-26T02:38:27;95673.84;;;0.39;100.00
40708;BME280;26392;42.696;23.350;2023-01-26T02:43:22;95689.53;;;0.42;100.00
40708;BME280;26392;42.696;23.350;2023-01-26T02:45:49;95682.53;;;0.26;100.00
40708;BME280;26392;42.696;23.350;2023-01-26T02:48:14;95690.84;;;0.31;100.00
40708;BME280;26392;42.696;23.350;2023-01-26T02:51:00;95682.59;;;0.33;100.00
40708;BME280;26392;42.696;23.350;2023-01-26T02:53:25;95676.59;;;0.31;100.00
40708;BME280;26392;42.696;23.350;2023-01-26T02:55:50;95676.34;;;0.40;100.00
40708;BME280;26392;42.696;23.350;2023-01-26T02:58:16;95666.81;;;0.38;100.00
40708;BME280;26392;42.696;23.350;2023-01-26T03:00:42;95662.41;;;0.45;100.00
40708;BME280;26392;42.696;23.350;2023-01-26T03:03:15;95665.53;;;0.49;100.00
40708;BME280;26392;42.696;23.350;2023-01-26T03:05:42;95652.50;;;0.46;100.00
40708;BME280;26392;42.696;23.350;2023-01-26T03:08:08;95656.75;;;0.55;100.00
40708;BME280;26392;42.696;23.350;2023-01-26T03:10:34;95659.16;;;0.50;100.00
40708;BME280;26392;42.696;23.350;2023-01-26T03:12:59;95656.47;;;0.35;100.00
40708;BME280;26392;42.696;23.350;2023-01-26T03:15:25;95642.97;;;0.43;100.00
40708;BME280;26392;42.696;23.350;2023-01-26T03:18:12;95639.72;;;0.33;100.00
40708;BME280;26392;42.696;23.350;2023-01-26T03:20:58;95641.94;;;0.29;100.00
40708;BME280;26392;42.696;23.350;2023-01-26T03:23:42;95639.44;;;0.13;100.00
40708;BME280;26392;42.696;23.350;2023-01-26T03:26:26;95633.81;;;0.22;100.00
40708;BME280;26392;42.696;23.350;2023-01-26T03:29:10;95631.59;;;0.26;100.00
40708;BME280;26392;42.696;23.350;2023-01-26T03:31:36;95624.00;;;0.30;100.00
40708;BME280;26392;42.696;23.350;2023-01-26T03:34:01;95624.75;;;0.24;100.00
40708;BME280;26392;42.696;23.350;2023-01-26T03:36:26;95627.22;;;0.25;100.00
40708;BME280;26392;42.696;23.350;2023-01-26T03:38:52;95621.53;;;0.28;100.00
40708;BME280;26392;42.696;23.350;2023-01-26T03:41:17;95621.78;;;0.33;100.00
40708;BME280;26392;42.696;23.350;2023-01-26T03:44:01;95620.13;;;0.32;100.00
40708;BME280;26392;42.696;23.350;2023-01-26T03:46:45;95616.34;;;0.27;100.00
40708;BME280;26392;42.696;23.350;2023-01-26T03:49:29;95616.34;;;0.27;100.00
40708;BME280;26392;42.696;23.350;2023-01-26T03:52:13;95602.94;;;0.27;100.00
40708;BME280;26392;42.696;23.350;2023-01-26T03:54:57;95616.13;;;0.13;100.00
40708;BME280;26392;42.696;23.350;2023-01-26T03:57:41;95598.69;;;0.17;100.00
40708;BME280;26392;42.696;23.350;2023-01-26T04:00:07;95604.50;;;0.06;100.00
40708;BME280;26392;42.696;23.350;2023-01-26T04:02:32;95597.28;;;0.07;100.00
40708;BME280;26392;42.696;23.350;2023-01-26T04:05:16;95602.81;;;0.05;100.00
40708;BME280;26392;42.696;23.350;2023-01-26T04:08:05;95601.63;;;0.08;100.00
40708;BME280;26392;42.696;23.350;2023-01-26T04:10:49;95581.38;;;0.05;100.00
40708;BME280;26392;42.696;23.350;2023-01-26T04:13:17;95595.19;;;0.17;100.00
40708;BME280;26392;42.696;23.350;2023-01-26T04:16:01;95572.91;;;0.16;100.00
40708;BME280;26392;42.696;23.350;2023-01-26T04:18:45;95587.16;;;0.32;100.00
40708;BME280;26392;42.696;23.350;2023-01-26T04:21:29;95577.91;;;0.34;100.00
40708;BME280;26392;42.696;23.350;2023-01-26T04:23:57;95558.31;;;0.34;100.00
40708;BME280;26392;42.696;23.350;2023-01-26T04:26:24;95559.75;;;0.36;100.00
40708;BME280;26392;42.696;23.350;2023-01-26T04:28:50;95561.34;;;0.46;100.00
40708;BME280;26392;42.696;23.350;2023-01-26T04:31:16;95541.50;;;0.40;100.00
40708;BME280;26392;42.696;23.350;2023-01-26T04:33:42;95550.69;;;0.52;100.00
40708;BME280;26392;42.696;23.350;2023-01-26T04:36:08;95561.88;;;0.56;100.00
40708;BME280;26392;42.696;23.350;2023-01-26T04:38:34;95554.09;;;0.61;100.00
40708;BME280;26392;42.696;23.350;2023-01-26T04:41:00;95552.91;;;0.63;100.00
40708;BME280;26392;42.696;23.350;2023-01-26T04:43:26;95550.53;;;0.54;100.00
40708;BME280;26392;42.696;23.350;2023-01-26T04:45:59;95555.31;;;0.58;100.00
40708;BME280;26392;42.696;23.350;2023-01-26T04:48:26;95570.19;;;0.61;100.00
40708;BME280;26392;42.696;23.350;2023-01-26T04:50:55;95559.78;;;0.51;100.00
40708;BME280;26392;42.696;23.350;2023-01-26T04:53:21;95560.59;;;0.52;100.00
40708;BME280;26392;42.696;23.350;2023-01-26T04:55:47;95558.94;;;0.51;100.00
40708;BME280;26392;42.696;23.350;2023-01-26T04:58:13;95562.63;;;0.50;100.00
40708;BME280;26392;42.696;23.350;2023-01-26T05:00:38;95564.50;;;0.49;100.00
40708;BME280;26392;42.696;23.350;2023-01-26T05:03:04;95558.84;;;0.59;100.00
40708;BME280;26392;42.696;23.350;2023-01-26T05:05:29;95564.84;;;0.61;100.00
40708;BME280;26392;42.696;23.350;2023-01-26T05:07:54;95564.00;;;0.60;100.00
40708;BME280;26392;42.696;23.350;2023-01-26T05:10:20;95559.69;;;0.59;100.00
40708;BME280;26392;42.696;23.350;2023-01-26T05:12:45;95557.50;;;0.70;100.00
40708;BME280;26392;42.696;23.350;2023-01-26T05:15:11;95548.47;;;0.56;100.00
40708;BME280;26392;42.696;23.350;2023-01-26T05:17:36;95554.59;;;0.64;100.00
40708;BME280;26392;42.696;23.350;2023-01-26T05:20:02;95549.66;;;0.68;100.00
40708;BME280;26392;42.696;23.350;2023-01-26T05:22:27;95548.66;;;0.69;100.00
40708;BME280;26392;42.696;23.350;2023-01-26T05:24:53;95557.28;;;0.64;100.00
40708;BME280;26392;42.696;23.350;2023-01-26T05:27:18;95559.56;;;0.68;100.00
40708;BME280;26392;42.696;23.350;2023-01-26T05:29:50;95537.94;;;0.54;100.00
40708;BME280;26392;42.696;23.350;2023-01-26T05:32:16;95539.88;;;0.60;100.00
40708;BME280;26392;42.696;23.350;2023-01-26T05:34:42;95546.78;;;0.70;100.00
40708;BME280;26392;42.696;23.350;2023-01-26T05:37:07;95541.41;;;0.70;100.00
40708;BME280;26392;42.696;23.350;2023-01-26T05:39:33;95547.72;;;0.77;100.00
40708;BME280;26392;42.696;23.350;2023-01-26T05:41:59;95544.66;;;0.80;100.00
40708;BME280;26392;42.696;23.350;2023-01-26T05:44:24;95540.94;;;0.81;100.00
40708;BME280;26392;42.696;23.350;2023-01-26T05:46:51;95519.34;;;0.68;100.00
40708;BME280;26392;42.696;23.350;2023-01-26T05:49:16;95543.16;;;0.77;100.00
40708;BME280;26392;42.696;23.350;2023-01-26T05:51:42;95547.97;;;0.82;100.00
40708;BME280;26392;42.696;23.350;2023-01-26T05:54:07;95533.91;;;0.80;100.00
40708;BME280;26392;42.696;23.350;2023-01-26T05:56:33;95546.13;;;0.82;100.00
40708;BME280;26392;42.696;23.350;2023-01-26T05:58:58;95541.03;;;0.87;100.00
40708;BME280;26392;42.696;23.350;2023-01-26T06:01:24;95554.50;;;0.94;100.00
40708;BME280;26392;42.696;23.350;2023-01-26T06:03:49;95540.91;;;0.96;100.00
40708;BME280;26392;42.696;23.350;2023-01-26T06:06:14;95545.06;;;0.98;100.00
40708;BME280;26392;42.696;23.350;2023-01-26T06:08:40;95550.78;;;0.95;100.00
40708;BME280;26392;42.696;23.350;2023-01-26T06:11:05;95538.41;;;0.94;100.00
40708;BME280;26392;42.696;23.350;2023-01-26T06:13:31;95537.56;;;0.94;100.00
40708;BME280;26392;42.696;23.350;2023-01-26T06:15:59;95540.44;;;0.92;100.00
40708;BME280;26392;42.696;23.350;2023-01-26T06:18:25;95538.28;;;1.02;100.00
40708;BME280;26392;42.696;23.350;2023-01-26T06:20:51;95536.44;;;1.03;100.00
40708;BME280;26392;42.696;23.350;2023-01-26T06:23:16;95528.50;;;0.95;100.00
40708;BME280;26392;42.696;23.350;2023-01-26T06:25:41;95524.59;;;0.97;100.00
40708;BME280;26392;42.696;23.350;2023-01-26T06:28:07;95516.06;;;0.87;100.00
40708;BME280;26392;42.696;23.350;2023-01-26T06:30:32;95518.59;;;0.95;100.00
40708;BME280;26392;42.696;23.350;2023-01-26T06:33:01;95520.84;;;0.92;100.00
40708;BME280;26392;42.696;23.350;2023-01-26T06:35:26;95510.69;;;0.87;100.00
40708;BME280;26392;42.696;23.350;2023-01-26T06:37:52;95513.94;;;0.82;100.00
40708;BME280;26392;42.696;23.350;2023-01-26T06:40:18;95509.22;;;0.84;100.00
40708;BME280;26392;42.696;23.350;2023-01-26T06:42:47;95510.53;;;0.95;100.00
40708;BME280;26392;42.696;23.350;2023-01-26T06:45:14;95518.47;;;1.03;100.00
40708;BME280;26392;42.696;23.350;2023-01-26T06:47:44;95515.06;;;1.09;100.00
40708;BME280;26392;42.696;23.350;2023-01-26T06:50:10;95525.31;;;1.06;100.00
40708;BME280;26392;42.696;23.350;2023-01-26T06:52:35;95506.75;;;1.04;100.00
40708;BME280;26392;42.696;23.350;2023-01-26T06:55:02;95517.38;;;0.98;100.00
40708;BME280;26392;42.696;23.350;2023-01-26T06:57:27;95512.38;;;1.09;100.00
40708;BME280;26392;42.696;23.350;2023-01-26T06:59:53;95507.63;;;1.11;100.00
40708;BME280;26392;42.696;23.350;2023-01-26T07:02:21;95500.59;;;1.10;100.00
40708;BME280;26392;42.696;23.350;2023-01-26T07:04:48;95503.06;;;1.12;100.00
40708;BME280;26392;42.696;23.350;2023-01-26T07:07:14;95499.25;;;1.21;100.00
40708;BME280;26392;42.696;23.350;2023-01-26T07:09:39;95504.41;;;1.23;100.00
40708;BME280;26392;42.696;23.350;2023-01-26T07:12:05;95487.56;;;1.29;100.00
40708;BME280;26392;42.696;23.350;2023-01-26T07:14:31;95499.56;;;1.33;100.00
40708;BME280;26392;42.696;23.350;2023-01-26T07:16:57;95495.63;;;1.29;100.00
40708;BME280;26392;42.696;23.350;2023-01-26T07:19:22;95495.09;;;1.19;100.00
40708;BME280;26392;42.696;23.350;2023-01-26T07:21:48;95473.50;;;1.27;100.00
40708;BME280;26392;42.696;23.350;2023-01-26T07:24:13;95497.56;;;1.42;100.00
40708;BME280;26392;42.696;23.350;2023-01-26T07:26:39;95470.34;;;1.45;100.00
40708;BME280;26392;42.696;23.350;2023-01-26T07:29:04;95492.16;;;1.35;100.00
40708;BME280;26392;42.696;23.350;2023-01-26T07:31:30;95478.63;;;1.50;100.00
40708;BME280;26392;42.696;23.350;2023-01-26T07:33:55;95480.09;;;1.52;100.00
40708;BME280;26392;42.696;23.350;2023-01-26T07:36:21;95484.59;;;1.45;100.00
40708;BME280;26392;42.696;23.350;2023-01-26T07:38:46;95491.91;;;1.30;100.00
40708;BME280;26392;42.696;23.350;2023-01-26T07:41:12;95477.13;;;1.41;100.00
40708;BME280;26392;42.696;23.350;2023-01-26T07:43:38;95466.81;;;1.44;100.00
40708;BME280;26392;42.696;23.350;2023-01-26T07:46:04;95467.94;;;1.56;100.00
40708;BME280;26392;42.696;23.350;2023-01-26T07:48:30;95465.91;;;1.59;100.00
40708;BME280;26392;42.696;23.350;2023-01-26T07:51:03;95472.34;;;1.64;100.00
40708;BME280;26392;42.696;23.350;2023-01-26T07:53:29;95470.94;;;1.68;100.00
40708;BME280;26392;42.696;23.350;2023-01-26T07:56:04;95470.53;;;1.71;100.00
40708;BME280;26392;42.696;23.350;2023-01-26T07:58:31;95479.91;;;1.82;100.00
40708;BME280;26392;42.696;23.350;2023-01-26T08:01:04;95480.78;;;1.89;100.00
40708;BME280;26392;42.696;23.350;2023-01-26T08:03:29;95470.28;;;2.01;100.00
40708;BME280;26392;42.696;23.350;2023-01-26T08:05:55;95465.94;;;1.93;100.00
40708;BME280;26392;42.696;23.350;2023-01-26T08:08:20;95460.75;;;1.92;100.00
40708;BME280;26392;42.696;23.350;2023-01-26T08:10:45;95461.00;;;2.04;100.00
40708;BME280;26392;42.696;23.350;2023-01-26T08:13:11;95461.81;;;1.97;100.00
40708;BME280;26392;42.696;23.350;2023-01-26T08:15:36;95454.66;;;2.18;100.00
40708;BME280;26392;42.696;23.350;2023-01-26T08:18:02;95451.81;;;2.26;100.00
40708;BME280;26392;42.696;23.350;2023-01-26T08:20:29;95454.94;;;2.30;100.00
40708;BME280;26392;42.696;23.350;2023-01-26T08:22:55;95434.03;;;2.25;100.00
40708;BME280;26392;42.696;23.350;2023-01-26T08:25:20;95451.41;;;2.29;100.00
40708;BME280;26392;42.696;23.350;2023-01-26T08:27:45;95451.69;;;2.41;100.00
40708;BME280;26392;42.696;23.350;2023-01-26T08:30:11;95439.94;;;2.55;100.00
40708;BME280;26392;42.696;23.350;2023-01-26T08:32:37;95442.00;;;2.60;100.00
40708;BME280;26392;42.696;23.350;2023-01-26T08:35:02;95431.53;;;2.78;100.00
40708;BME280;26392;42.696;23.350;2023-01-26T08:37:28;95431.53;;;2.85;100.00
40708;BME280;26392;42.696;23.350;2023-01-26T08:39:53;95440.66;;;2.97;100.00
40708;BME280;26392;42.696;23.350;2023-01-26T08:42:19;95432.56;;;2.90;100.00
40708;BME280;26392;42.696;23.350;2023-01-26T08:44:44;95424.31;;;2.92;100.00
40708;BME280;26392;42.696;23.350;2023-01-26T08:47:10;95426.34;;;2.90;100.00
40708;BME280;26392;42.696;23.350;2023-01-26T08:49:35;95423.22;;;2.80;100.00
40708;BME280;26392;42.696;23.350;2023-01-26T08:52:01;95431.09;;;2.75;100.00
40708;BME280;26392;42.696;23.350;2023-01-26T08:54:26;95427.41;;;2.89;99.62
40708;BME280;26392;42.696;23.350;2023-01-26T08:56:52;95431.78;;;3.03;98.36
40708;BME280;26392;42.696;23.350;2023-01-26T08:59:19;95436.75;;;3.06;96.57
40708;BME280;26392;42.696;23.350;2023-01-26T09:01:44;95434.66;;;3.02;95.45
40708;BME280;26392;42.696;23.350;2023-01-26T09:04:10;95434.03;;;3.06;94.68
40708;BME280;26392;42.696;23.350;2023-01-26T09:06:35;95430.75;;;3.11;94.46
40708;BME280;26392;42.696;23.350;2023-01-26T09:09:01;95428.88;;;3.18;93.21
40708;BME280;26392;42.696;23.350;2023-01-26T09:11:26;95425.34;;;3.24;92.41
40708;BME280;26392;42.696;23.350;2023-01-26T09:13:52;95435.50;;;3.29;92.64
40708;BME280;26392;42.696;23.350;2023-01-26T09:16:22;95432.19;;;3.27;91.98
40708;BME280;26392;42.696;23.350;2023-01-26T09:18:49;95424.50;;;3.04;91.54
40708;BME280;26392;42.696;23.350;2023-01-26T09:21:15;95420.38;;;3.01;92.89
40708;BME280;26392;42.696;23.350;2023-01-26T09:23:40;95422.44;;;2.99;93.09
40708;BME280;26392;42.696;23.350;2023-01-26T09:26:05;95415.22;;;3.00;93.44
40708;BME280;26392;42.696;23.350;2023-01-26T09:28:31;95409.41;;;3.03;93.30
40708;BME280;26392;42.696;23.350;2023-01-26T09:31:02;95400.28;;;2.90;92.46
40708;BME280;26392;42.696;23.350;2023-01-26T09:33:28;95386.63;;;2.99;92.89
40708;BME280;26392;42.696;23.350;2023-01-26T09:35:54;95389.50;;;2.90;93.47
40708;BME280;26392;42.696;23.350;2023-01-26T09:38:19;95382.50;;;3.03;93.98
40708;BME280;26392;42.696;23.350;2023-01-26T09:43:50;95385.38;;;3.01;93.66
40708;BME280;26392;42.696;23.350;2023-01-26T09:46:23;95391.97;;;2.79;95.46
40708;BME280;26392;42.696;23.350;2023-01-26T09:49:11;95392.19;;;2.84;95.26
40708;BME280;26392;42.696;23.350;2023-01-26T09:54:42;95377.53;;;3.00;94.87
40708;BME280;26392;42.696;23.350;2023-01-26T09:57:23;95371.91;;;3.08;93.79
40708;BME280;26392;42.696;23.350;2023-01-26T10:00:07;95361.56;;;2.91;93.69
40708;BME280;26392;42.696;23.350;2023-01-26T10:08:08;95379.56;;;3.24;92.87
40708;BME280;26392;42.696;23.350;2023-01-26T10:10:38;95372.75;;;3.35;92.42
40708;BME280;26392;42.696;23.350;2023-01-26T10:13:05;95372.53;;;3.43;91.20
40708;BME280;26392;42.696;23.350;2023-01-26T10:15:36;95365.25;;;3.57;90.16
40708;BME280;26392;42.696;23.350;2023-01-26T10:18:11;95365.91;;;3.39;90.91
40708;BME280;26392;42.696;23.350;2023-01-26T10:20:49;95365.25;;;3.44;90.68
40708;BME280;26392;42.696;23.350;2023-01-26T10:23:27;95349.75;;;3.26;91.66
40708;BME280;26392;42.696;23.350;2023-01-26T10:26:00;95334.44;;;3.13;92.00
40708;BME280;26392;42.696;23.350;2023-01-26T10:28:28;95328.44;;;3.18;91.96
40708;BME280;26392;42.696;23.350;2023-01-26T10:30:55;95328.00;;;3.27;91.33
40708;BME280;26392;42.696;23.350;2023-01-26T10:33:34;95319.09;;;3.33;91.01
40708;BME280;26392;42.696;23.350;2023-01-26T10:36:02;95324.69;;;3.32;91.06
40708;BME280;26392;42.696;23.350;2023-01-26T10:41:04;95296.94;;;3.31;90.92
40708;BME280;26392;42.696;23.350;2023-01-26T10:43:39;95294.03;;;3.26;90.70
40708;BME280;26392;42.696;23.350;2023-01-26T10:46:08;95278.44;;;3.42;90.66
40708;BME280;26392;42.696;23.350;2023-01-26T10:48:59;95271.00;;;3.44;90.20
40708;BME280;26392;42.696;23.350;2023-01-26T10:51:28;95258.16;;;3.46;89.40
40708;BME280;26392;42.696;23.350;2023-01-26T10:54:25;95257.66;;;3.69;89.31
40708;BME280;26392;42.696;23.350;2023-01-26T10:56:59;95260.91;;;3.84;88.34
40708;BME280;26392;42.696;23.350;2023-01-26T10:59:33;95243.44;;;3.93;87.75
40708;BME280;26392;42.696;23.350;2023-01-26T11:02:20;95239.44;;;4.02;87.43
40708;BME280;26392;42.696;23.350;2023-01-26T11:07:37;95229.25;;;3.73;88.34
40708;BME280;26392;42.696;23.350;2023-01-26T11:12:51;95221.50;;;3.90;87.34
40708;BME280;26392;42.696;23.350;2023-01-26T11:15:23;95218.69;;;4.03;86.85
40708;BME280;26392;42.696;23.350;2023-01-26T11:17:59;95211.22;;;4.05;86.18
40708;BME280;26392;42.696;23.350;2023-01-26T11:20:45;95196.84;;;4.18;85.73
40708;BME280;26392;42.696;23.350;2023-01-26T11:25:44;95191.66;;;4.16;84.34
40708;BME280;26392;42.696;23.350;2023-01-26T11:37:14;95180.09;;;4.09;86.58
40708;BME280;26392;42.696;23.350;2023-01-26T11:45:27;95155.63;;;4.36;84.43
40708;BME280;26392;42.696;23.350;2023-01-26T11:48:39;95147.78;;;4.53;83.62
40708;BME280;26392;42.696;23.350;2023-01-26T11:54:27;95156.63;;;4.41;82.97
40708;BME280;26392;42.696;23.350;2023-01-26T11:59:51;95163.00;;;4.22;85.51
40708;BME280;26392;42.696;23.350;2023-01-26T12:02:27;95132.66;;;4.01;85.91
40708;BME280;26392;42.696;23.350;2023-01-26T12:04:56;95148.34;;;4.11;86.14
40708;BME280;26392;42.696;23.350;2023-01-26T12:10:26;95143.91;;;3.92;87.65
40708;BME280;26392;42.696;23.350;2023-01-26T12:13:07;95127.94;;;3.65;88.61
40708;BME280;26392;42.696;23.350;2023-01-26T12:15:37;95135.16;;;3.26;91.52
40708;BME280;26392;42.696;23.350;2023-01-26T12:25:35;95107.34;;;3.39;95.11
40708;BME280;26392;42.696;23.350;2023-01-26T12:33:07;95098.00;;;3.42;95.60
40708;BME280;26392;42.696;23.350;2023-01-26T12:35:42;95098.28;;;3.33;96.00
40708;BME280;26392;42.696;23.350;2023-01-26T12:38:18;95101.97;;;3.39;96.84
40708;BME280;26392;42.696;23.350;2023-01-26T12:41:09;95085.38;;;3.42;96.94
40708;BME280;26392;42.696;23.350;2023-01-26T12:46:23;95074.81;;;3.41;97.99
40708;BME280;26392;42.696;23.350;2023-01-26T12:48:56;95080.16;;;3.47;97.96
40708;BME280;26392;42.696;23.350;2023-01-26T12:51:31;95078.91;;;3.11;99.60
40708;BME280;26392;42.696;23.350;2023-01-26T12:54:04;95069.94;;;3.24;100.00
40708;BME280;26392;42.696;23.350;2023-01-26T12:56:38;95081.53;;;3.25;100.00
40708;BME280;26392;42.696;23.350;2023-01-26T12:59:20;95082.38;;;3.25;100.00
40708;BME280;26392;42.696;23.350;2023-01-26T13:01:49;95083.19;;;3.26;100.00
40708;BME280;26392;42.696;23.350;2023-01-26T13:04:15;95068.34;;;3.10;100.00
40708;BME280;26392;42.696;23.350;2023-01-26T13:06:41;95068.97;;;3.12;100.00
40708;BME280;26392;42.696;23.350;2023-01-26T13:09:24;95077.25;;;3.10;100.00
40708;BME280;26392;42.696;23.350;2023-01-26T13:11:53;95068.50;;;3.22;100.00
40708;BME280;26392;42.696;23.350;2023-01-26T13:14:37;95071.91;;;3.04;100.00
40708;BME280;26392;42.696;23.350;2023-01-26T13:29:57;95056.84;;;3.34;100.00
40708;BME280;26392;42.696;23.350;2023-01-26T13:34:55;95043.53;;;3.40;100.00
40708;BME280;26392;42.696;23.350;2023-01-26T13:37:42;95051.06;;;3.24;100.00
40708;BME280;26392;42.696;23.350;2023-01-26T13:40:19;95046.13;;;3.28;100.00
40708;BME280;26392;42.696;23.350;2023-01-26T13:45:28;95048.56;;;3.29;100.00
40708;BME280;26392;42.696;23.350;2023-01-26T13:47:56;95043.41;;;3.28;100.00
40708;BME280;26392;42.696;23.350;2023-01-26T13:50:29;95041.97;;;3.25;100.00
40708;BME280;26392;42.696;23.350;2023-01-26T13:52:55;95031.66;;;3.22;100.00
40708;BME280;26392;42.696;23.350;2023-01-26T13:55:23;95053.44;;;3.07;100.00
40708;BME280;26392;42.696;23.350;2023-01-26T13:58:09;95052.91;;;2.85;100.00
40708;BME280;26392;42.696;23.350;2023-01-26T14:00:35;95045.03;;;2.90;100.00
40708;BME280;26392;42.696;23.350;2023-01-26T14:03:00;95042.97;;;2.92;100.00
40708;BME280;26392;42.696;23.350;2023-01-26T14:05:27;95028.94;;;2.84;100.00
40708;BME280;26392;42.696;23.350;2023-01-26T14:07:53;95025.19;;;2.91;100.00
40708;BME280;26392;42.696;23.350;2023-01-26T14:10:19;95022.63;;;3.03;100.00
40708;BME280;26392;42.696;23.350;2023-01-26T14:12:48;95019.06;;;3.09;100.00
40708;BME280;26392;42.696;23.350;2023-01-26T14:15:24;95013.25;;;3.12;100.00
40708;BME280;26392;42.696;23.350;2023-01-26T14:18:13;95009.94;;;3.17;100.00
40708;BME280;26392;42.696;23.350;2023-01-26T14:20:43;95015.31;;;3.17;100.00
40708;BME280;26392;42.696;23.350;2023-01-26T14:26:01;95017.38;;;3.15;100.00
40708;BME280;26392;42.696;23.350;2023-01-26T14:28:30;95016.75;;;3.13;100.00
40708;BME280;26392;42.696;23.350;2023-01-26T14:31:05;95013.00;;;3.21;100.00
40708;BME280;26392;42.696;23.350;2023-01-26T14:33:35;95007.81;;;3.26;100.00